Irene, SD (57037)

10:25 AM CST on November 24, 2014 (GMT -0600)
Volin | Change Station
CLOSE
Current Station
Personal Weather Station
Location: Volin, SD
Elevation: 1240 ft
Nearby Weather Stations

Elev 1240 ft 42.98 °N, 97.26 °W | Updated 0 second ago

Overcast
Overcast
24.0 °F
Feels Like 10 °F
N
19.0
Wind Variable Wind from West
Gusts 29.0 mph

Today
High -- | Low -- °F
--% Chance of Precip.
Yesterday
High -- | Low -- °F
Precip. -- in
7:33 AM 4:58 PM
Waxing Crescent, 6% visible
Pressure 29.72 in
Visibility 8.0 miles
Clouds Mostly Cloudy 2000 ft
Mostly Cloudy 2500 ft
Overcast 2900 ft
Windchill 10 °F
Dew Point 19 °F
Humidity 81%
Rainfall 0.00 in
Snow Depth Not available.
UV 0 out of 12
Pollen .10 out of 12
Air Quality Not available.
Flu Activity Not available.
METAR KFSD 241556Z 32023G29KT 8SM -SN BKN020 BKN025 OVC029 M07/M11 A2966 RMK AO2 PK WND 32031/1502 SLP064 P0000 T10671106

More Conditions Fewer Conditions

Pressure 29.72 in
Visibility 8.0 miles
Clouds Mostly Cloudy 2000 ft
Mostly Cloudy 2500 ft
Overcast 2900 ft
Windchill 10 °F
Dew Point 19 °F
Humidity 81%
Rainfall 0.00 in
Snow Depth Not available.
UV 0 out of 12
Pollen .10 out of 12
Air Quality Not available.
Flu Activity Not available.
METAR KFSD 241556Z 32023G29KT 8SM -SN BKN020 BKN025 OVC029 M07/M11 A2966 RMK AO2 PK WND 32031/1502 SLP064 P0000 T10671106

More Conditions Fewer Conditions

10-Day Weather Forecast

Almanac

Astronomy

Nov. 24, 2014 Rise Set
Actual Time
Civil Twilight
Nautical Twilight
Astronomical Twilight
Moon
Length of Visible Light
Length of Day
Tomorrow will be .
, % of the Moon is Illuminated

Today's Extremes

State Highs State Lows

Community

WunderPhotos

Upload Photos

1,773,364 photos uploaded!

WunderBlogs® & News

Nearby

Air Quality

  Air Quality AQ Index Pollutant
Not available.

Snow Depth

Station Depth Elevation

Earthquake Activity

City Distance Mag. Time & Date
Minimum magnitude displayed is 2.5.

Coastal Water Temperatures

Place Temperature

Nearby Weather Stations